Time;durP1;ratioP1;P1;durP2;ratioP2;P2;SDS_P1;SDS_P2;PMS_P1;PMS_P2;Temp;Humidity;BMP_temperature;BMP_pressure;BME280_temperature;BME280_humidity;BME280_pressure;Samples;Min_cycle;Max_cycle;Signal;HPM_P1;HPM_P2
2022/03/01 00:00:11;;;;;;;14.30;10.60;;;15.20;59.80;;;;;;4062484;29;22155;-58
2022/03/01 00:02:33;;;;;;;14.45;10.73;;;15.20;59.90;;;;;;4062964;29;20418;-59
2022/03/01 00:04:55;;;;;;;14.00;10.43;;;15.20;60.00;;;;;;4062916;29;20078;-59
2022/03/01 00:07:17;;;;;;;14.27;11.63;;;15.20;60.00;;;;;;4054326;29;20052;-59
2022/03/01 00:09:40;;;;;;;14.13;10.70;;;15.10;60.00;;;;;;4047603;29;20134;-59
2022/03/01 00:12:02;;;;;;;13.63;10.13;;;15.10;59.90;;;;;;4052389;29;20115;-59
2022/03/01 00:14:26;;;;;;;15.23;11.27;;;15.10;60.00;;;;;;4047727;29;20495;-59
2022/03/01 00:16:48;;;;;;;15.88;12.15;;;15.10;60.20;;;;;;4047806;29;20470;-59
2022/03/01 00:19:11;;;;;;;14.13;10.60;;;15.10;60.10;;;;;;4047627;29;20491;-60
2022/03/01 00:21:33;;;;;;;14.50;10.75;;;15.10;59.90;;;;;;4048931;29;20052;-60
2022/03/01 00:23:55;;;;;;;13.48;10.43;;;15.10;59.90;;;;;;4062699;29;20501;-60
2022/03/01 00:26:17;;;;;;;15.80;10.95;;;15.10;59.90;;;;;;4061910;29;20743;-60
2022/03/01 00:28:40;;;;;;;12.43;10.25;;;15.10;59.90;;;;;;4050904;29;20070;-60
2022/03/01 00:31:04;;;;;;;12.30;10.60;;;15.10;59.90;;;;;;4047600;29;20483;-59
2022/03/01 00:33:27;;;;;;;12.65;10.90;;;15.00;59.70;;;;;;4065907;29;20052;-60
2022/03/01 00:35:49;;;;;;;13.02;10.60;;;15.00;59.80;;;;;;4065814;29;20566;-60
2022/03/01 00:38:11;;;;;;;12.95;10.23;;;15.10;59.80;;;;;;4063536;29;20059;-59
2022/03/01 00:40:33;;;;;;;17.20;11.05;;;15.00;59.90;;;;;;4065775;29;20679;-59
2022/03/01 00:42:55;;;;;;;14.85;11.20;;;15.00;59.80;;;;;;4065414;29;20151;-59
2022/03/01 00:45:17;;;;;;;13.40;10.45;;;15.00;60.00;;;;;;4063789;29;20138;-59
2022/03/01 00:47:41;;;;;;;15.77;10.10;;;15.00;60.00;;;;;;4065189;29;20056;-59
2022/03/01 00:50:04;;;;;;;14.15;10.65;;;15.00;59.90;;;;;;4065561;29;20070;-59
2022/03/01 00:52:26;;;;;;;15.38;11.40;;;15.00;60.00;;;;;;4065227;29;20048;-59
2022/03/01 00:54:48;;;;;;;15.15;10.48;;;15.00;59.80;;;;;;4064340;29;20048;-59
2022/03/01 00:57:11;;;;;;;14.25;11.25;;;15.00;59.80;;;;;;4064825;29;20048;-59
2022/03/01 00:59:33;;;;;;;11.63;10.18;;;15.00;59.90;;;;;;4065493;29;20051;-58
2022/03/01 01:01:55;;;;;;;13.77;10.88;;;15.00;59.90;;;;;;4058532;29;20056;-59
2022/03/01 01:04:19;;;;;;;11.85;10.27;;;15.00;60.30;;;;;;4049611;29;20460;-59
2022/03/01 01:06:41;;;;;;;12.20;10.32;;;15.10;60.50;;;;;;4050279;29;20059;-59
2022/03/01 01:09:04;;;;;;;13.38;9.93;;;15.10;60.50;;;;;;4049874;29;20112;-59
2022/03/01 01:11:26;;;;;;;13.70;10.98;;;15.10;60.60;;;;;;4049387;29;20416;-59
2022/03/01 01:13:48;;;;;;;11.88;10.48;;;15.10;61.00;;;;;;4049279;29;20053;-58
2022/03/01 01:16:11;;;;;;;14.05;10.65;;;15.20;61.40;;;;;;4054779;29;20623;-60
2022/03/01 01:18:33;;;;;;;12.52;10.90;;;15.30;61.30;;;;;;4063303;29;20056;-59
2022/03/01 01:20:57;;;;;;;13.32;10.45;;;15.40;61.00;;;;;;4065016;29;20084;-59
2022/03/01 01:23:19;;;;;;;13.45;11.02;;;15.50;60.80;;;;;;4064899;29;22569;-59
2022/03/01 01:25:40;;;;;;;14.35;10.65;;;15.50;60.40;;;;;;4064973;29;20139;-59
2022/03/01 01:28:04;;;;;;;11.80;10.48;;;15.50;60.20;;;;;;4058946;29;20833;-59
2022/03/01 01:30:28;;;;;;;14.88;11.02;;;15.50;59.90;;;;;;4049867;29;20491;-59
2022/03/01 01:32:52;;;;;;;13.60;10.90;;;15.60;59.90;;;;;;4049606;29;20053;-59
2022/03/01 01:35:14;;;;;;;14.13;10.52;;;15.50;59.90;;;;;;4050437;29;20040;-59
2022/03/01 01:37:39;;;;;;;12.90;10.43;;;15.50;59.90;;;;;;4048921;29;20056;-58
2022/03/01 01:40:02;;;;;;;13.32;10.43;;;15.50;59.80;;;;;;4049734;29;20448;-59
2022/03/01 01:42:25;;;;;;;12.77;10.05;;;15.50;59.90;;;;;;4048621;29;20118;-59
2022/03/01 01:44:47;;;;;;;12.57;11.25;;;15.50;59.90;;;;;;4049600;29;20052;-59
2022/03/01 01:47:29;;;;;;;12.90;10.35;;;15.40;59.60;;;;;;4049166;29;20052;-59
2022/03/01 01:49:51;;;;;;;14.07;10.40;;;15.40;59.80;;;;;;4049296;29;20048;-59
2022/03/01 01:52:13;;;;;;;14.48;11.02;;;15.40;60.30;;;;;;4056558;29;20059;-60
2022/03/01 01:54:37;;;;;;;15.20;10.70;;;15.40;60.60;;;;;;4064141;29;20051;-60
2022/03/01 01:57:00;;;;;;;12.02;10.48;;;15.40;60.50;;;;;;4064514;29;20062;-60
2022/03/01 01:59:22;;;;;;;13.52;10.05;;;15.40;61.30;;;;;;4050029;29;20049;-60
2022/03/01 02:01:44;;;;;;;12.40;9.90;;;15.50;60.30;;;;;;4050086;29;20060;-61
2022/03/01 02:04:07;;;;;;;14.60;11.27;;;15.50;60.10;;;;;;4063724;29;20052;-60
2022/03/01 02:06:29;;;;;;;14.50;11.43;;;15.50;60.10;;;;;;4065134;29;20501;-59
2022/03/01 02:08:51;;;;;;;14.15;10.77;;;15.50;60.10;;;;;;4057166;29;20561;-59
2022/03/01 02:11:15;;;;;;;13.38;10.73;;;15.50;60.00;;;;;;4048425;29;20080;-59
2022/03/01 02:13:37;;;;;;;16.73;11.93;;;15.50;59.90;;;;;;4063978;29;20104;-59
2022/03/01 02:16:00;;;;;;;17.13;11.30;;;15.50;60.20;;;;;;4064204;29;20557;-59
2022/03/01 02:18:23;;;;;;;14.45;10.85;;;15.50;60.10;;;;;;4063785;29;20071;-60
2022/03/01 02:20:46;;;;;;;12.95;10.43;;;15.60;60.00;;;;;;4064145;29;20052;-60
2022/03/01 02:23:09;;;;;;;12.27;10.27;;;15.60;59.70;;;;;;4063031;29;20048;-60
2022/03/01 02:25:31;;;;;;;13.23;10.15;;;15.70;59.80;;;;;;4057362;29;20384;-59
2022/03/01 02:27:54;;;;;;;14.70;11.70;;;15.60;59.70;;;;;;4047914;29;20056;-59
2022/03/01 02:30:16;;;;;;;13.57;10.60;;;15.70;60.00;;;;;;4048259;29;20139;-59
2022/03/01 02:32:39;;;;;;;13.73;10.88;;;15.80;59.70;;;;;;4054219;29;20111;-59
2022/03/01 02:35:02;;;;;;;12.65;10.40;;;15.80;59.40;;;;;;4063722;29;20048;-59
2022/03/01 02:37:25;;;;;;;15.68;10.48;;;15.80;59.40;;;;;;4063773;29;20067;-59
2022/03/01 02:39:47;;;;;;;15.88;12.15;;;15.90;59.40;;;;;;4063720;29;20059;-59
2022/03/01 02:42:10;;;;;;;14.43;11.15;;;15.80;60.10;;;;;;4051821;29;20071;-59
2022/03/01 02:44:32;;;;;;;12.98;11.10;;;15.90;59.30;;;;;;4063608;29;20056;-59
2022/03/01 02:46:54;;;;;;;15.25;11.50;;;15.90;59.20;;;;;;4062630;29;20084;-59
2022/03/01 02:49:16;;;;;;;15.02;11.20;;;15.90;59.00;;;;;;4048324;29;20056;-59
2022/03/01 02:51:39;;;;;;;14.77;11.40;;;15.90;58.90;;;;;;4048136;29;20063;-59
2022/03/01 02:54:03;;;;;;;14.45;11.80;;;16.00;58.90;;;;;;4046844;29;20155;-59
2022/03/01 02:56:25;;;;;;;12.88;11.35;;;15.90;58.80;;;;;;4047663;29;20053;-58
2022/03/01 02:58:48;;;;;;;13.90;10.88;;;15.90;58.90;;;;;;4051275;29;20045;-59
2022/03/01 03:01:10;;;;;;;14.50;12.02;;;15.90;59.00;;;;;;4063382;29;20055;-59
2022/03/01 03:03:35;;;;;;;15.38;11.15;;;15.90;59.10;;;;;;4063377;29;20056;-59
2022/03/01 03:05:57;;;;;;;15.25;11.43;;;15.80;59.10;;;;;;4048224;29;20057;-59
2022/03/01 03:08:19;;;;;;;15.07;11.07;;;15.80;59.10;;;;;;4047616;29;20060;-59
2022/03/01 03:10:43;;;;;;;14.38;11.00;;;15.70;59.10;;;;;;4046385;29;20055;-60
2022/03/01 03:13:05;;;;;;;13.07;11.27;;;15.70;59.30;;;;;;4047229;29;20487;-59
2022/03/01 03:15:28;;;;;;;13.95;11.88;;;15.70;59.30;;;;;;4047558;29;20543;-59
2022/03/01 03:17:50;;;;;;;13.02;10.45;;;15.70;59.20;;;;;;4063086;29;20064;-59
2022/03/01 03:20:12;;;;;;;14.45;11.93;;;15.70;59.30;;;;;;4063228;29;20044;-59
2022/03/01 03:22:34;;;;;;;14.02;11.32;;;15.70;59.40;;;;;;4063360;29;20446;-60
2022/03/01 03:24:57;;;;;;;15.10;11.18;;;15.60;59.40;;;;;;4051380;29;20051;-59
2022/03/01 03:27:20;;;;;;;15.50;11.18;;;15.60;59.30;;;;;;4047985;29;20475;-59
2022/03/01 03:29:42;;;;;;;14.43;11.27;;;15.60;59.70;;;;;;4060281;29;20478;-59
2022/03/01 03:32:05;;;;;;;12.40;10.07;;;15.70;59.80;;;;;;4062107;29;20056;-59
2022/03/01 03:34:27;;;;;;;12.68;11.32;;;15.80;59.50;;;;;;4047582;29;20577;-59
2022/03/01 03:36:49;;;;;;;13.75;11.13;;;15.80;59.20;;;;;;4047941;29;20100;-59
2022/03/01 03:39:12;;;;;;;15.70;11.13;;;15.90;59.00;;;;;;4047869;29;20463;-59
2022/03/01 03:41:35;;;;;;;15.32;11.85;;;15.90;58.80;;;;;;4047788;29;20052;-58
2022/03/01 03:43:59;;;;;;;12.82;11.23;;;16.00;58.80;;;;;;4053105;29;20409;-59
2022/03/01 03:46:22;;;;;;;13.65;11.60;;;16.00;58.70;;;;;;4062646;29;20927;-59
2022/03/01 03:48:45;;;;;;;13.35;11.18;;;16.10;58.60;;;;;;4063186;29;20573;-58
2022/03/01 03:51:07;;;;;;;13.23;11.55;;;16.10;58.40;;;;;;4048659;29;20075;-58
2022/03/01 03:53:29;;;;;;;14.38;11.70;;;16.10;58.20;;;;;;4048003;29;20056;-59
2022/03/01 03:55:52;;;;;;;13.68;11.85;;;16.10;58.10;;;;;;4047864;29;20067;-59
2022/03/01 03:58:13;;;;;;;14.68;11.48;;;16.10;58.10;;;;;;4047739;29;20053;-59
2022/03/01 04:00:37;;;;;;;14.65;12.40;;;16.10;58.20;;;;;;4051074;29;20084;-59
2022/03/01 04:02:59;;;;;;;15.05;12.25;;;16.10;58.30;;;;;;4062571;29;20056;-60
2022/03/01 04:05:22;;;;;;;15.82;12.32;;;16.10;58.20;;;;;;4064363;29;20063;-59
2022/03/01 04:07:46;;;;;;;15.35;12.00;;;16.10;58.10;;;;;;4066134;29;20052;-58
2022/03/01 04:10:10;;;;;;;15.05;11.82;;;16.10;58.20;;;;;;4062831;29;20070;-58
2022/03/01 04:12:32;;;;;;;13.05;11.43;;;16.10;58.10;;;;;;4065647;29;20055;-58
2022/03/01 04:14:54;;;;;;;27.60;12.63;;;16.10;58.30;;;;;;4062132;29;20044;-59
2022/03/01 04:17:18;;;;;;;13.63;11.68;;;16.00;58.40;;;;;;4049777;29;20583;-59
2022/03/01 04:19:39;;;;;;;16.17;12.48;;;16.00;58.30;;;;;;4035894;29;20101;-60
2022/03/01 04:22:02;;;;;;;14.77;12.43;;;16.10;58.40;;;;;;4055692;29;20076;-58
2022/03/01 04:24:24;;;;;;;16.63;12.25;;;16.10;58.30;;;;;;4051569;29;20060;-59
2022/03/01 04:26:46;;;;;;;13.57;11.88;;;16.10;58.20;;;;;;4065721;29;20048;-60
2022/03/01 04:29:08;;;;;;;15.20;10.98;;;16.10;58.10;;;;;;4058949;29;20062;-58
2022/03/01 04:31:30;;;;;;;14.63;11.52;;;16.10;58.10;;;;;;4050751;29;20052;-58
2022/03/01 04:33:54;;;;;;;14.32;11.38;;;16.10;58.20;;;;;;4050532;29;20057;-58
2022/03/01 04:36:16;;;;;;;15.75;12.43;;;16.10;58.30;;;;;;4050288;29;20432;-58
2022/03/01 04:38:39;;;;;;;15.43;11.80;;;16.10;58.20;;;;;;4050595;29;20107;-58
2022/03/01 04:41:02;;;;;;;16.25;12.05;;;16.10;58.20;;;;;;4050411;29;20049;-58
2022/03/01 04:43:24;;;;;;;14.07;11.98;;;16.10;58.20;;;;;;4056385;29;20091;-58
2022/03/01 04:45:47;;;;;;;14.55;12.50;;;16.00;58.20;;;;;;4065062;29;20050;-58
2022/03/01 04:48:12;;;;;;;14.43;11.40;;;16.00;59.00;;;;;;4065274;29;20060;-59
2022/03/01 04:50:35;;;;;;;15.75;11.82;;;16.10;58.30;;;;;;4065154;29;20141;-58
2022/03/01 04:52:57;;;;;;;14.93;12.18;;;16.00;58.10;;;;;;4064710;29;20577;-58
2022/03/01 04:55:19;;;;;;;17.00;12.55;;;16.00;58.10;;;;;;4064937;29;20075;-58
2022/03/01 04:57:41;;;;;;;15.27;11.07;;;16.00;58.20;;;;;;4065132;29;20044;-59
2022/03/01 05:00:10;;;;;;;15.50;12.45;;;16.00;58.40;;;;;;4064655;29;20048;-58
2022/03/01 05:02:32;;;;;;;14.20;11.52;;;16.00;58.40;;;;;;4065685;29;20059;-59
2022/03/01 05:04:54;;;;;;;14.27;11.75;;;16.00;58.40;;;;;;4064663;29;20074;-58
2022/03/01 05:07:18;;;;;;;15.13;12.00;;;16.10;58.40;;;;;;4065002;29;20437;-58
2022/03/01 05:09:40;;;;;;;15.13;11.75;;;16.10;58.20;;;;;;4065467;29;20103;-58
2022/03/01 05:12:03;;;;;;;16.63;12.25;;;16.30;58.10;;;;;;4056016;29;20059;-58
2022/03/01 05:14:27;;;;;;;14.45;12.30;;;16.30;57.80;;;;;;4049988;29;20068;-58
2022/03/01 05:16:49;;;;;;;15.45;12.15;;;16.30;57.60;;;;;;4049611;29;20072;-58
2022/03/01 05:19:12;;;;;;;14.40;11.10;;;16.40;57.40;;;;;;4049540;29;20100;-59
2022/03/01 05:21:34;;;;;;;13.68;11.57;;;16.40;57.30;;;;;;4051318;29;20460;-59
2022/03/01 05:23:57;;;;;;;13.38;11.00;;;16.30;57.20;;;;;;4064906;29;20127;-60
2022/03/01 05:26:20;;;;;;;18.23;12.07;;;16.30;57.30;;;;;;4064646;29;20060;-60
2022/03/01 05:28:42;;;;;;;14.85;12.13;;;16.30;57.50;;;;;;4064818;29;20040;-60
2022/03/01 05:31:05;;;;;;;15.27;11.77;;;16.20;57.40;;;;;;4064237;29;20063;-57
2022/03/01 05:33:28;;;;;;;15.43;11.88;;;16.10;57.60;;;;;;4063260;29;20056;-60
2022/03/01 05:35:50;;;;;;;14.85;11.50;;;16.10;57.80;;;;;;4062928;29;20075;-60
2022/03/01 05:38:12;;;;;;;14.65;11.68;;;16.00;57.90;;;;;;4064829;29;20076;-61
2022/03/01 05:40:37;;;;;;;14.85;12.45;;;16.00;58.00;;;;;;4064657;29;20487;-60
2022/03/01 05:43:00;;;;;;;13.18;10.75;;;16.00;58.10;;;;;;4035002;29;20139;-60
2022/03/01 05:45:25;;;;;;;14.13;12.35;;;16.00;58.20;;;;;;4048727;29;20455;-58
2022/03/01 05:47:48;;;;;;;15.35;11.85;;;16.00;58.20;;;;;;4048757;29;20135;-60
2022/03/01 05:50:11;;;;;;;16.75;11.98;;;16.00;58.20;;;;;;4052354;29;20079;-61
2022/03/01 05:52:38;;;;;;;14.60;11.63;;;16.00;58.00;;;;;;4063802;29;20080;-60
2022/03/01 05:55:00;;;;;;;14.73;11.85;;;16.00;58.00;;;;;;4064689;29;20131;-60
2022/03/01 05:57:27;;;;;;;16.42;12.85;;;16.00;57.90;;;;;;4048436;29;20055;-60
2022/03/01 05:59:49;;;;;;;14.23;11.98;;;16.00;58.20;;;;;;4048769;29;20049;-61
2022/03/01 06:02:11;;;;;;;16.08;12.02;;;15.90;58.30;;;;;;4048959;29;20785;-60
2022/03/01 06:04:34;;;;;;;14.10;11.43;;;16.00;58.40;;;;;;4048882;29;20131;-60
2022/03/01 06:06:58;;;;;;;15.93;11.98;;;16.00;58.20;;;;;;4034416;29;20059;-59
2022/03/01 06:09:20;;;;;;;15.07;12.38;;;16.10;57.90;;;;;;4048759;29;20056;-60
2022/03/01 06:11:42;;;;;;;13.45;11.48;;;16.10;58.40;;;;;;4048811;29;20076;-59
2022/03/01 06:14:06;;;;;;;15.38;12.35;;;16.10;57.60;;;;;;4047164;29;20067;-59
2022/03/01 06:16:29;;;;;;;16.77;12.30;;;16.10;57.50;;;;;;4048809;29;20088;-59
2022/03/01 06:18:51;;;;;;;17.10;12.30;;;16.10;57.70;;;;;;4048845;29;20403;-60
2022/03/01 06:21:13;;;;;;;15.00;11.73;;;16.10;57.80;;;;;;4049003;29;20080;-60
2022/03/01 06:23:35;;;;;;;15.93;12.05;;;16.10;57.90;;;;;;4049056;29;20087;-60
2022/03/01 06:25:57;;;;;;;15.93;12.35;;;16.10;57.90;;;;;;4048761;29;20613;-60
2022/03/01 06:28:19;;;;;;;16.77;12.52;;;16.10;57.90;;;;;;4063782;29;20052;-60
2022/03/01 06:30:43;;;;;;;16.67;12.00;;;16.10;57.80;;;;;;4064076;29;20475;-59
2022/03/01 06:33:06;;;;;;;14.38;11.77;;;16.10;57.80;;;;;;4064270;29;20051;-60
2022/03/01 06:35:28;;;;;;;15.30;11.98;;;16.00;57.90;;;;;;4063348;29;20058;-63
2022/03/01 06:37:50;;;;;;;14.63;12.32;;;16.00;58.10;;;;;;4063408;29;20454;-64
2022/03/01 06:40:14;;;;;;;16.80;12.50;;;16.00;58.20;;;;;;4063811;29;20044;-64
2022/03/01 06:42:36;;;;;;;15.73;11.93;;;16.00;58.30;;;;;;4063677;29;20052;-64
2022/03/01 06:44:58;;;;;;;17.42;13.95;;;16.10;58.50;;;;;;4054601;29;20143;-65
2022/03/01 06:47:22;;;;;;;16.52;12.73;;;16.10;58.60;;;;;;4054275;29;20048;-64
2022/03/01 06:49:44;;;;;;;17.23;12.75;;;16.10;58.50;;;;;;4048233;29;20056;-65
2022/03/01 06:52:09;;;;;;;15.60;12.77;;;16.20;58.80;;;;;;4054425;29;20055;-64
2022/03/01 06:54:31;;;;;;;16.55;12.20;;;16.30;58.50;;;;;;4062653;29;20142;-64
2022/03/01 06:56:53;;;;;;;15.60;12.60;;;16.30;58.10;;;;;;4071374;29;20060;-64
2022/03/01 06:59:16;;;;;;;16.17;11.75;;;16.40;58.00;;;;;;4061819;29;20328;-64
2022/03/01 07:01:38;;;;;;;15.43;12.57;;;16.30;57.90;;;;;;4078782;29;20328;-65
2022/03/01 07:04:02;;;;;;;14.30;11.80;;;16.30;57.90;;;;;;4057435;29;20079;-65
2022/03/01 07:06:25;;;;;;;15.77;12.95;;;16.30;57.70;;;;;;4052281;29;20159;-65
2022/03/01 07:08:47;;;;;;;15.30;12.60;;;16.20;57.90;;;;;;4049032;29;20084;-65
2022/03/01 07:11:09;;;;;;;15.00;12.55;;;16.10;58.00;;;;;;4055624;29;20052;-65
2022/03/01 07:13:31;;;;;;;16.10;12.45;;;16.10;58.10;;;;;;4064454;29;20071;-64
2022/03/01 07:15:53;;;;;;;16.88;12.95;;;16.00;58.10;;;;;;4055158;29;20056;-65
2022/03/01 07:18:15;;;;;;;17.90;12.80;;;16.00;58.20;;;;;;4047614;29;20601;-65
2022/03/01 07:20:39;;;;;;;15.70;12.27;;;16.00;58.10;;;;;;4047452;29;20052;-65
2022/03/01 07:23:01;;;;;;;20.90;16.77;;;16.00;58.00;;;;;;4059987;29;20048;-64
2022/03/01 07:25:24;;;;;;;17.27;12.98;;;16.00;57.90;;;;;;4046095;29;20055;-64
2022/03/01 07:27:50;;;;;;;18.75;12.30;;;16.00;58.00;;;;;;4060633;29;20063;-64
2022/03/01 07:30:13;;;;;;;17.65;12.85;;;16.00;57.90;;;;;;4046025;29;20059;-64
2022/03/01 07:32:35;;;;;;;17.80;13.25;;;16.00;57.90;;;;;;4060308;29;20423;-64
2022/03/01 07:34:57;;;;;;;17.50;13.13;;;16.00;57.70;;;;;;4060783;29;20048;-64
2022/03/01 07:37:21;;;;;;;18.13;12.68;;;16.00;57.60;;;;;;4060415;29;20491;-64
2022/03/01 07:39:44;;;;;;;16.70;14.38;;;16.00;57.80;;;;;;4059036;29;20407;-64
2022/03/01 07:42:07;;;;;;;17.02;12.93;;;16.10;57.60;;;;;;4060388;29;20052;-64
2022/03/01 07:44:29;;;;;;;17.50;13.07;;;16.20;57.40;;;;;;4045644;29;20048;-64
2022/03/01 07:46:52;;;;;;;16.00;12.48;;;16.20;57.20;;;;;;4060691;29;20506;-66
2022/03/01 07:49:14;;;;;;;16.15;13.13;;;16.20;57.00;;;;;;4057033;29;20040;-65
2022/03/01 07:51:37;;;;;;;15.25;12.48;;;16.20;57.00;;;;;;4059870;29;20059;-65
2022/03/01 07:54:00;;;;;;;14.95;11.68;;;16.20;56.90;;;;;;4060087;29;20147;-64
2022/03/01 07:56:22;;;;;;;15.27;12.15;;;16.10;56.80;;;;;;4060181;29;20056;-64
2022/03/01 07:58:46;;;;;;;19.60;13.10;;;16.10;57.00;;;;;;4060469;29;20048;-64
2022/03/01 08:01:09;;;;;;;20.73;12.98;;;16.10;57.30;;;;;;4060367;29;20123;-64
2022/03/01 08:03:31;;;;;;;17.23;13.68;;;16.10;57.50;;;;;;4060154;29;20055;-64
2022/03/01 08:05:53;;;;;;;17.85;12.75;;;16.10;57.50;;;;;;4059825;29;20075;-64
2022/03/01 08:08:16;;;;;;;14.32;11.45;;;16.10;57.40;;;;;;4060299;29;20208;-64
2022/03/01 08:10:39;;;;;;;16.60;12.15;;;16.10;57.50;;;;;;4059517;29;20147;-64
2022/03/01 08:13:13;;;;;;;17.75;12.32;;;16.10;58.10;;;;;;4058899;29;20052;-64
2022/03/01 08:15:37;;;;;;;18.98;13.27;;;16.00;58.80;;;;;;4060269;29;20147;-64
2022/03/01 08:18:00;;;;;;;18.50;13.50;;;16.00;59.50;;;;;;4059237;29;20058;-65
2022/03/01 08:20:23;;;;;;;19.55;12.95;;;15.90;59.40;;;;;;4058862;29;20059;-65
2022/03/01 08:22:45;;;;;;;16.10;12.77;;;15.90;59.30;;;;;;4059958;29;20682;-64
2022/03/01 08:25:08;;;;;;;16.67;13.07;;;15.80;59.30;;;;;;4059212;29;20047;-64
2022/03/01 08:27:32;;;;;;;16.20;13.18;;;15.80;59.30;;;;;;4059643;29;20510;-65
2022/03/01 08:29:54;;;;;;;16.65;12.88;;;15.80;60.10;;;;;;4059534;29;20052;-65
2022/03/01 08:32:17;;;;;;;16.40;12.82;;;15.80;59.30;;;;;;4060613;29;20384;-66
2022/03/01 08:34:39;;;;;;;23.58;13.70;;;15.90;59.00;;;;;;4060121;29;20052;-65
2022/03/01 08:37:02;;;;;;;21.05;12.68;;;16.00;58.60;;;;;;4059627;29;20054;-65
2022/03/01 08:39:25;;;;;;;15.50;12.55;;;16.10;58.20;;;;;;4059972;29;20052;-65
2022/03/01 08:41:47;;;;;;;16.33;13.00;;;16.10;57.90;;;;;;4060527;29;20058;-66
2022/03/01 08:44:11;;;;;;;16.77;12.80;;;16.10;57.60;;;;;;4060150;29;20097;-66
2022/03/01 08:46:33;;;;;;;15.73;12.60;;;16.10;57.40;;;;;;4027086;29;20069;-66
2022/03/01 08:48:56;;;;;;;17.45;12.90;;;16.10;57.30;;;;;;4058500;29;20439;-66
2022/03/01 08:51:18;;;;;;;18.23;12.90;;;16.10;57.30;;;;;;4061118;29;20447;-66
2022/03/01 08:53:41;;;;;;;20.35;13.40;;;16.00;57.30;;;;;;4062701;29;20112;-65
2022/03/01 08:56:03;;;;;;;18.50;12.43;;;15.90;57.30;;;;;;4061689;29;20059;-66
2022/03/01 08:58:25;;;;;;;19.58;13.02;;;15.90;58.10;;;;;;4062867;29;20482;-66
2022/03/01 09:00:48;;;;;;;17.83;12.48;;;15.90;57.50;;;;;;4062379;29;20056;-66
2022/03/01 09:03:11;;;;;;;16.60;14.05;;;15.90;57.40;;;;;;4062899;29;20084;-66
2022/03/01 09:05:53;;;;;;;16.10;12.73;;;15.80;57.30;;;;;;4062030;29;20066;-66
2022/03/01 09:08:18;;;;;;;23.33;12.63;;;15.80;58.10;;;;;;4062271;29;20104;-67
2022/03/01 09:10:41;;;;;;;17.38;13.38;;;15.80;57.40;;;;;;4062666;29;20111;-66
2022/03/01 09:13:03;;;;;;;16.27;11.82;;;15.70;57.10;;;;;;4062684;29;20078;-65
2022/03/01 09:15:30;;;;;;;17.10;12.10;;;15.70;57.20;;;;;;4062091;29;20060;-65
2022/03/01 09:17:54;;;;;;;15.23;12.27;;;15.80;57.00;;;;;;4062489;29;20212;-66
2022/03/01 09:20:17;;;;;;;15.43;11.32;;;15.80;56.80;;;;;;4047602;29;20044;-65
2022/03/01 09:22:39;;;;;;;17.77;13.15;;;15.80;56.50;;;;;;4062186;29;20048;-65
2022/03/01 09:25:04;;;;;;;17.95;12.73;;;15.90;56.20;;;;;;4062159;29;20058;-65
2022/03/01 09:27:26;;;;;;;15.90;12.73;;;16.00;55.80;;;;;;4062394;29;20052;-65
2022/03/01 09:29:49;;;;;;;15.88;12.80;;;16.00;55.60;;;;;;4061715;29;20155;-66
2022/03/01 09:32:11;;;;;;;16.52;11.90;;;16.00;55.40;;;;;;4062073;29;20056;-65
2022/03/01 09:34:39;;;;;;;15.60;11.55;;;16.00;55.30;;;;;;4062656;29;22037;-66
2022/03/01 09:37:01;;;;;;;16.23;11.75;;;16.00;55.40;;;;;;4062082;29;20060;-65
2022/03/01 09:39:23;;;;;;;18.35;12.07;;;16.00;55.20;;;;;;4062379;29;20052;-65
2022/03/01 09:41:46;;;;;;;15.00;11.45;;;16.00;55.00;;;;;;4062135;29;20063;-65
2022/03/01 09:44:08;;;;;;;15.57;11.57;;;16.00;55.00;;;;;;4062467;29;20451;-66
2022/03/01 09:46:31;;;;;;;18.35;13.07;;;16.00;54.70;;;;;;4062055;29;20052;-66
2022/03/01 09:48:53;;;;;;;19.23;12.05;;;16.00;54.50;;;;;;4062017;29;20052;-66
2022/03/01 09:51:18;;;;;;;21.98;13.05;;;16.00;55.10;;;;;;4062125;29;20080;-66
2022/03/01 09:53:41;;;;;;;18.67;11.85;;;16.10;54.40;;;;;;4062357;29;20052;-65
2022/03/01 09:56:07;;;;;;;17.15;12.50;;;16.10;54.40;;;;;;4062077;29;20210;-65
2022/03/01 09:58:31;;;;;;;17.63;12.63;;;16.10;54.40;;;;;;4061137;29;20075;-65
2022/03/01 10:00:53;;;;;;;16.83;11.60;;;16.10;54.50;;;;;;4062112;29;20064;-65
2022/03/01 10:03:17;;;;;;;15.25;11.57;;;16.00;54.70;;;;;;4061554;29;20850;-65
2022/03/01 10:05:41;;;;;;;16.05;12.98;;;16.00;54.50;;;;;;4062092;29;20111;-65
2022/03/01 10:08:10;;;;;;;19.48;12.57;;;16.00;54.50;;;;;;4061565;29;20481;-65
2022/03/01 10:10:38;;;;;;;17.63;12.43;;;16.00;54.50;;;;;;4062256;29;20113;-65
2022/03/01 10:13:00;;;;;;;19.88;13.65;;;16.00;54.60;;;;;;4061279;29;20364;-64
2022/03/01 10:15:28;;;;;;;18.80;12.40;;;16.10;54.30;;;;;;4047493;29;20076;-65
2022/03/01 10:17:50;;;;;;;17.35;12.20;;;16.20;54.20;;;;;;4061765;29;20063;-65
2022/03/01 10:20:14;;;;;;;15.68;12.57;;;16.20;54.10;;;;;;4061979;29;20111;-65
2022/03/01 10:22:44;;;;;;;16.40;11.55;;;16.30;54.00;;;;;;4061531;29;20078;-65
2022/03/01 10:25:09;;;;;;;18.75;12.68;;;16.30;53.90;;;;;;4061273;29;20054;-64
2022/03/01 10:27:31;;;;;;;22.85;12.77;;;16.30;53.80;;;;;;4061794;29;20075;-65
2022/03/01 10:29:53;;;;;;;16.50;11.20;;;16.30;53.60;;;;;;4061295;29;20165;-65
2022/03/01 10:32:19;;;;;;;15.77;11.80;;;16.30;53.70;;;;;;4061717;29;20405;-65
2022/03/01 10:34:57;;;;;;;20.02;13.02;;;16.20;53.50;;;;;;4060921;29;20417;-64
2022/03/01 10:37:26;;;;;;;16.42;11.98;;;16.20;53.60;;;;;;4060845;29;20075;-64
2022/03/01 10:39:48;;;;;;;17.85;12.90;;;16.10;53.50;;;;;;4061507;29;20055;-64
2022/03/01 10:42:12;;;;;;;16.23;12.00;;;16.10;53.60;;;;;;4061358;29;20075;-64
2022/03/01 10:44:34;;;;;;;19.27;12.15;;;16.00;53.60;;;;;;4060948;29;20052;-64
2022/03/01 10:46:58;;;;;;;16.83;11.93;;;16.00;54.00;;;;;;4061334;29;20063;-65
2022/03/01 10:49:23;;;;;;;15.20;11.70;;;16.00;54.20;;;;;;4061162;29;20152;-64
2022/03/01 10:51:50;;;;;;;18.88;12.13;;;15.90;54.20;;;;;;4060416;29;20156;-65
2022/03/01 10:54:23;;;;;;;17.15;12.48;;;16.00;54.30;;;;;;4060925;29;20056;-66
2022/03/01 10:56:45;;;;;;;18.73;13.00;;;16.00;54.10;;;;;;4060944;29;20471;-65
2022/03/01 10:59:09;;;;;;;16.67;12.38;;;16.00;54.20;;;;;;4061147;29;20090;-65
2022/03/01 11:01:32;;;;;;;16.42;12.60;;;16.00;54.20;;;;;;4060975;29;20060;-65
2022/03/01 11:03:54;;;;;;;15.38;11.75;;;16.00;54.00;;;;;;4061044;29;20067;-65
2022/03/01 11:06:17;;;;;;;19.20;12.25;;;16.00;54.00;;;;;;4061068;29;20059;-64
2022/03/01 11:08:41;;;;;;;18.92;12.65;;;16.10;53.80;;;;;;4061074;29;20505;-65
2022/03/01 11:11:05;;;;;;;16.92;12.48;;;16.10;53.60;;;;;;4060508;29;20146;-65
2022/03/01 11:13:28;;;;;;;16.45;11.43;;;16.10;53.40;;;;;;4060891;29;20398;-65
2022/03/01 11:16:20;;;;;;;20.27;12.02;;;16.20;52.90;;;;;;4059939;29;20495;-65
2022/03/01 11:18:46;;;;;;;;;;;16.30;52.60;;;;;;4060919;29;20111;-65
2022/03/01 11:21:09;;;;;;;15.80;11.65;;;16.30;52.70;;;;;;4046634;29;19930;-66
2022/03/01 11:23:32;;;;;;;17.60;12.32;;;16.40;52.50;;;;;;4059374;29;20062;-66
2022/03/01 11:25:54;;;;;;;14.23;11.80;;;16.40;52.40;;;;;;4060383;29;20115;-66
2022/03/01 11:28:18;;;;;;;17.75;11.65;;;16.40;52.50;;;;;;4060727;29;20047;-66
2022/03/01 11:30:42;;;;;;;16.40;11.98;;;16.40;52.40;;;;;;4060645;29;20075;-66
2022/03/01 11:33:06;;;;;;;17.52;11.30;;;16.40;52.40;;;;;;4060315;29;20056;-66
2022/03/01 11:35:30;;;;;;;18.23;11.70;;;16.40;52.30;;;;;;4060745;29;20079;-66
2022/03/01 11:38:01;;;;;;;19.77;11.65;;;16.30;52.30;;;;;;4060564;29;20452;-65
2022/03/01 11:40:26;;;;;;;15.77;11.02;;;16.30;52.20;;;;;;4060668;29;20772;-65
2022/03/01 11:42:49;;;;;;;15.65;11.88;;;16.20;52.20;;;;;;4046285;29;20049;-62
2022/03/01 11:45:12;;;;;;;18.00;11.80;;;16.20;52.40;;;;;;4060223;29;20494;-61
2022/03/01 11:47:35;;;;;;;16.35;11.93;;;16.10;52.70;;;;;;4060593;29;20111;-61
2022/03/01 11:50:15;;;;;;;18.73;12.77;;;16.10;53.10;;;;;;4059751;29;20052;-60
2022/03/01 11:52:50;;;;;;;17.13;11.48;;;16.10;53.10;;;;;;4058855;29;20502;-60
2022/03/01 11:55:12;;;;;;;16.27;12.13;;;16.20;52.90;;;;;;4059674;29;20605;-60
2022/03/01 11:57:38;;;;;;;15.27;11.65;;;16.20;52.70;;;;;;4060509;29;20509;-61
2022/03/01 12:00:01;;;;;;;15.95;11.73;;;16.30;52.70;;;;;;4060056;29;20387;-61
2022/03/01 12:02:29;;;;;;;22.02;13.18;;;16.30;52.80;;;;;;4060535;29;20107;-61
2022/03/01 12:04:55;;;;;;;15.85;11.77;;;16.30;52.60;;;;;;4060507;29;20075;-61
2022/03/01 12:07:23;;;;;;;17.10;12.48;;;16.30;52.50;;;;;;4060191;29;20127;-61